W13 weather

Eagle's Nest Airport
Waynesboro, Virginia, United States

Public forecast

Using degrees Fahrenheit for public forecast. Weather courtesy of forecast.io.

METAR (pilot weather report)

Closest report is Shenandoah Valley Regional Airport, 11.4 nm (21.2 km) NNE. Retrieved 2019/07/22 09:30 UTC (6 minutes ago):

KSHD 220930Z AUTO 00000KT 7SM CLR 20/20 A2995 RMK AO2 T01960195

TAF (pilot weather forecast)

Closest forecast is Charlottesville Albemarle Airport, 23.5 nm (43.5 km) E. Retrieved 2019/07/22 06:36 UTC (3 hours ago):

TAF KCHO 220533Z 2206/2306 VRB04KT P6SM SCT050 FM221600 23009KT P6SM SHRA VCTS BKN070CB FM222000 23010G17KT P6SM SHRA BKN080 FM230200 23006KT 5SM SHRA OVC045